createdAt,value
2017-09-04T00:02:09.311Z,9.96
2017-09-04T00:04:37.652Z,9.98
2017-09-04T00:07:05.986Z,9.96
2017-09-04T00:09:34.330Z,9.96
2017-09-04T00:12:02.642Z,9.88
2017-09-04T00:14:30.965Z,9.91
2017-09-04T00:16:59.303Z,9.96
2017-09-04T00:19:27.609Z,10.03
2017-09-04T00:21:55.919Z,9.79
2017-09-04T00:24:24.267Z,9.85
2017-09-04T00:26:52.578Z,9.90
2017-09-04T00:29:20.913Z,9.87
2017-09-04T00:31:49.221Z,9.69
2017-09-04T00:34:17.532Z,9.67
2017-09-04T00:36:45.869Z,9.72
2017-09-04T00:39:14.175Z,9.70
2017-09-04T00:41:42.486Z,9.61
2017-09-04T00:44:10.822Z,9.64
2017-09-04T00:46:39.134Z,9.74
2017-09-04T00:49:07.467Z,9.58
2017-09-04T00:51:35.795Z,9.60
2017-09-04T00:54:04.128Z,9.54
2017-09-04T00:56:32.444Z,9.59
2017-09-04T00:59:00.751Z,9.59
2017-09-04T01:01:29.089Z,9.47
2017-09-04T01:03:57.396Z,9.27
2017-09-04T01:06:25.713Z,9.11
2017-09-04T01:08:54.054Z,9.02
2017-09-04T01:11:22.374Z,9.13
2017-09-04T01:13:50.698Z,9.13
2017-09-04T01:16:19.035Z,9.17
2017-09-04T01:18:47.344Z,9.19
2017-09-04T01:21:15.686Z,9.26
2017-09-04T01:23:43.994Z,9.37
2017-09-04T01:26:12.307Z,9.46
2017-09-04T01:28:40.638Z,9.45
2017-09-04T01:31:08.947Z,9.48
2017-09-04T01:33:37.262Z,9.50
2017-09-04T01:36:05.604Z,9.57
2017-09-04T01:38:33.918Z,9.55
2017-09-04T01:41:02.274Z,9.66
2017-09-04T01:43:30.586Z,9.57
2017-09-04T01:45:58.901Z,9.46
2017-09-04T01:48:27.243Z,9.40
2017-09-04T01:50:55.550Z,9.47
2017-09-04T01:53:23.861Z,9.52
2017-09-04T01:55:52.186Z,9.38
2017-09-04T01:58:20.523Z,9.49
2017-09-04T02:00:48.830Z,9.29
2017-09-04T02:03:17.146Z,9.49
2017-09-04T02:05:45.481Z,9.62
2017-09-04T02:08:13.790Z,9.74
2017-09-04T02:10:42.114Z,9.86
2017-09-04T02:13:10.449Z,9.90
2017-09-04T02:15:38.762Z,9.96
2017-09-04T02:18:07.095Z,9.96
2017-09-04T02:20:35.448Z,9.88
2017-09-04T02:23:03.762Z,9.90
2017-09-04T02:25:32.082Z,9.92
2017-09-04T02:28:00.415Z,9.92
2017-09-04T02:30:28.746Z,9.88
2017-09-04T02:32:57.065Z,9.94
2017-09-04T02:35:25.402Z,9.79
2017-09-04T02:37:53.723Z,9.82
2017-09-04T02:40:22.031Z,9.71
2017-09-04T02:42:50.381Z,9.29
2017-09-04T02:45:18.699Z,9.49
2017-09-04T02:47:47.077Z,9.42
2017-09-04T02:50:15.383Z,9.35
2017-09-04T02:52:43.700Z,9.52
2017-09-04T02:55:12.034Z,9.64
2017-09-04T02:57:40.342Z,9.62
2017-09-04T03:00:08.667Z,9.70
2017-09-04T03:02:37.013Z,9.72
2017-09-04T03:05:05.319Z,9.84
2017-09-04T03:07:33.630Z,9.87
2017-09-04T03:10:01.963Z,9.89
2017-09-04T03:12:30.274Z,9.98
2017-09-04T03:14:58.591Z,9.97
2017-09-04T03:17:26.922Z,9.65
2017-09-04T03:19:55.242Z,9.65
2017-09-04T03:22:23.578Z,9.62
2017-09-04T03:24:51.895Z,9.58
2017-09-04T03:27:20.239Z,9.66
2017-09-04T03:29:48.548Z,9.36
2017-09-04T03:32:16.863Z,9.50
2017-09-04T03:34:45.203Z,9.59
2017-09-04T03:37:13.514Z,9.47
2017-09-04T03:39:41.826Z,9.41
2017-09-04T03:42:10.167Z,9.28
2017-09-04T03:44:39.063Z,9.40
2017-09-04T03:47:07.374Z,9.36
2017-09-04T03:49:35.718Z,9.50
2017-09-04T03:52:04.027Z,9.53
2017-09-04T03:54:32.358Z,9.55
2017-09-04T03:57:00.675Z,9.35
2017-09-04T03:59:29.021Z,9.34
2017-09-04T04:01:57.461Z,9.25
2017-09-04T04:04:25.803Z,8.65
2017-09-04T04:06:54.479Z,8.59
2017-09-04T04:09:22.786Z,8.86
2017-09-04T04:11:51.127Z,9.00
2017-09-04T04:14:19.430Z,9.05
2017-09-04T04:16:47.738Z,9.06
2017-09-04T04:19:16.083Z,9.10
2017-09-04T04:21:44.390Z,9.08
2017-09-04T04:24:12.698Z,9.06
2017-09-04T04:26:41.042Z,9.05
2017-09-04T04:29:09.354Z,9.00
2017-09-04T04:31:37.695Z,9.03
2017-09-04T04:34:06.006Z,9.03
2017-09-04T04:36:34.325Z,8.99
2017-09-04T04:39:02.665Z,9.06
2017-09-04T04:41:30.974Z,8.93
2017-09-04T04:43:59.283Z,9.00
2017-09-04T04:46:27.647Z,9.02
2017-09-04T04:48:55.962Z,9.05
2017-09-04T04:51:24.271Z,9.08
2017-09-04T04:53:52.618Z,8.86
2017-09-04T04:56:20.926Z,8.58
2017-09-04T04:58:49.239Z,8.73
2017-09-04T05:01:17.573Z,8.74
2017-09-04T05:03:45.886Z,8.75
2017-09-04T05:06:14.218Z,8.84
2017-09-04T05:08:42.543Z,8.81
2017-09-04T05:11:10.890Z,8.86
2017-09-04T05:13:39.201Z,8.84
2017-09-04T05:16:07.519Z,8.75
2017-09-04T05:18:35.850Z,8.89
2017-09-04T05:21:04.166Z,8.99
2017-09-04T05:23:32.520Z,9.00
2017-09-04T05:26:00.838Z,9.10
2017-09-04T05:28:29.154Z,9.15
2017-09-04T05:30:57.490Z,8.99
2017-09-04T05:33:25.798Z,9.01
2017-09-04T05:35:54.138Z,9.05
2017-09-04T05:38:22.456Z,9.15
2017-09-04T05:40:50.810Z,9.05
2017-09-04T05:43:19.127Z,8.93
2017-09-04T05:45:47.479Z,9.01
2017-09-04T05:48:15.820Z,9.02
2017-09-04T05:50:44.131Z,9.13
2017-09-04T05:53:12.450Z,8.73
2017-09-04T05:55:40.795Z,8.94
2017-09-04T05:58:09.110Z,9.00
2017-09-04T06:00:37.446Z,9.27
2017-09-04T06:03:05.758Z,9.48
2017-09-04T06:05:34.074Z,9.47
2017-09-04T06:08:02.418Z,9.46
2017-09-04T06:10:30.730Z,9.20
2017-09-04T06:12:59.050Z,9.43
2017-09-04T06:15:27.390Z,9.38
2017-09-04T06:17:55.699Z,9.60
2017-09-04T06:20:24.042Z,9.86
2017-09-04T06:22:52.512Z,10.07
2017-09-04T06:25:20.838Z,10.05
2017-09-04T06:27:49.186Z,10.14
2017-09-04T06:30:17.502Z,10.20
2017-09-04T06:32:45.847Z,10.56
2017-09-04T06:35:14.167Z,10.67
2017-09-04T06:37:42.507Z,10.86
2017-09-04T06:40:10.831Z,11.09
2017-09-04T06:42:39.150Z,11.10
2017-09-04T06:45:07.491Z,10.94
2017-09-04T06:47:35.809Z,10.97
2017-09-04T06:50:04.167Z,11.01
2017-09-04T06:52:32.490Z,11.41
2017-09-04T06:55:00.810Z,11.34
2017-09-04T06:57:29.158Z,11.54
2017-09-04T06:59:57.483Z,11.48
2017-09-04T07:02:25.806Z,11.69
2017-09-04T07:04:54.150Z,11.94
2017-09-04T07:07:22.708Z,11.99
2017-09-04T07:09:51.033Z,12.24
2017-09-04T07:12:19.382Z,12.42
2017-09-04T07:14:47.710Z,12.33
2017-09-04T07:17:16.063Z,12.67
2017-09-04T07:19:44.383Z,12.83
2017-09-04T07:22:12.715Z,13.08
2017-09-04T07:24:41.067Z,13.18
2017-09-04T07:27:09.386Z,13.35
2017-09-04T07:29:37.728Z,13.27
2017-09-04T07:32:06.050Z,13.24
2017-09-04T07:34:34.381Z,13.33
2017-09-04T07:37:02.740Z,13.62
2017-09-04T07:39:31.063Z,13.53
2017-09-04T07:41:59.391Z,13.88
2017-09-04T07:44:27.747Z,14.00
2017-09-04T07:46:56.098Z,14.24
2017-09-04T07:49:24.446Z,14.42
2017-09-04T07:51:52.770Z,14.20
2017-09-04T07:54:21.092Z,14.53
2017-09-04T07:56:49.443Z,14.52
2017-09-04T07:59:17.767Z,14.66
2017-09-04T08:01:46.114Z,14.91
2017-09-04T08:04:14.445Z,15.11
2017-09-04T08:06:42.761Z,15.29
2017-09-04T08:09:11.108Z,15.42
2017-09-04T08:11:39.425Z,15.57
2017-09-04T08:14:07.766Z,15.73
2017-09-04T08:16:36.086Z,15.79
2017-09-04T08:19:04.406Z,15.82
2017-09-04T08:21:32.754Z,15.86
2017-09-04T08:24:01.084Z,16.06
2017-09-04T08:26:29.511Z,16.00
2017-09-04T08:28:57.864Z,16.31
2017-09-04T08:31:26.189Z,16.43
2017-09-04T08:33:54.508Z,16.58
2017-09-04T08:36:22.851Z,16.63
2017-09-04T08:38:51.169Z,16.78
2017-09-04T08:41:19.492Z,16.75
2017-09-04T08:43:47.838Z,16.90
2017-09-04T08:46:16.156Z,16.97
2017-09-04T08:48:44.479Z,16.85
2017-09-04T08:51:12.825Z,16.97
2017-09-04T08:53:41.143Z,17.14
2017-09-04T08:56:09.486Z,17.31
2017-09-04T08:58:37.802Z,17.49
2017-09-04T09:01:06.117Z,17.51
2017-09-04T09:03:34.463Z,17.50
2017-09-04T09:06:02.780Z,17.69
2017-09-04T09:08:31.094Z,17.70
2017-09-04T09:10:59.430Z,17.70
2017-09-04T09:13:27.746Z,17.67
2017-09-04T09:15:56.062Z,17.86
2017-09-04T09:18:24.408Z,17.77
2017-09-04T09:20:52.726Z,18.06
2017-09-04T09:23:21.081Z,18.34
2017-09-04T09:25:49.413Z,18.65
2017-09-04T09:28:17.734Z,18.80
2017-09-04T09:30:46.078Z,18.98
2017-09-04T09:33:14.390Z,19.04
2017-09-04T09:35:42.731Z,19.15
2017-09-04T09:38:11.046Z,18.91
2017-09-04T09:40:39.366Z,19.21
2017-09-04T09:43:07.707Z,19.29
2017-09-04T09:45:36.031Z,19.38
2017-09-04T09:48:04.350Z,19.55
2017-09-04T09:50:32.703Z,19.72
2017-09-04T09:53:01.019Z,19.62
2017-09-04T09:55:29.377Z,19.77
2017-09-04T09:57:57.712Z,19.79
2017-09-04T10:00:26.031Z,20.02
2017-09-04T10:02:54.379Z,20.24
2017-09-04T10:05:22.694Z,20.39
2017-09-04T10:07:51.016Z,20.38
2017-09-04T10:10:19.350Z,20.55
2017-09-04T10:12:47.664Z,20.83
2017-09-04T10:15:16.006Z,20.91
2017-09-04T10:17:44.323Z,21.01
2017-09-04T10:20:12.671Z,21.13
2017-09-04T10:22:40.980Z,21.42
2017-09-04T10:25:09.323Z,21.49
2017-09-04T10:27:37.642Z,21.38
2017-09-04T10:30:05.986Z,21.58
2017-09-04T10:32:34.328Z,21.35
2017-09-04T10:35:02.670Z,21.05
2017-09-04T10:37:30.992Z,21.37
2017-09-04T10:39:59.317Z,21.46
2017-09-04T10:42:27.651Z,21.64
2017-09-04T10:44:55.979Z,21.47
2017-09-04T10:47:24.313Z,21.64
2017-09-04T10:49:52.650Z,21.81
2017-09-04T10:52:20.968Z,21.79
2017-09-04T10:54:49.313Z,21.88
2017-09-04T10:57:17.628Z,21.96
2017-09-04T10:59:45.942Z,22.23
2017-09-04T11:02:14.278Z,22.31
2017-09-04T11:04:42.601Z,22.16
2017-09-04T11:07:10.954Z,22.21
2017-09-04T11:09:39.266Z,22.35
2017-09-04T11:12:07.581Z,22.07
2017-09-04T11:14:35.924Z,21.82
2017-09-04T11:17:04.242Z,22.19
2017-09-04T11:19:32.582Z,22.68
2017-09-04T11:22:00.898Z,22.89
2017-09-04T11:24:29.983Z,22.32
2017-09-04T11:26:58.322Z,22.38
2017-09-04T11:29:26.642Z,22.16
2017-09-04T11:31:54.986Z,22.58
2017-09-04T11:34:23.307Z,22.71
2017-09-04T11:36:51.654Z,22.93
2017-09-04T11:39:20.020Z,23.13
2017-09-04T11:41:48.356Z,23.42
2017-09-04T11:44:16.704Z,23.02
2017-09-04T11:46:45.020Z,23.41
2017-09-04T11:49:13.343Z,23.60
2017-09-04T11:51:41.696Z,23.65
2017-09-04T11:54:10.019Z,23.96
2017-09-04T11:56:38.368Z,24.06
2017-09-04T11:59:06.680Z,23.88
2017-09-04T12:01:34.995Z,24.18
2017-09-04T12:04:03.341Z,24.37
2017-09-04T12:06:31.663Z,24.14
2017-09-04T12:08:59.982Z,24.06
2017-09-04T12:11:28.335Z,24.39
2017-09-04T12:13:56.654Z,24.56
2017-09-04T12:16:24.974Z,24.99
2017-09-04T12:18:53.320Z,24.70
2017-09-04T12:21:21.635Z,25.02
2017-09-04T12:23:49.962Z,25.03
2017-09-04T12:26:18.302Z,25.47
2017-09-04T12:28:46.626Z,25.57
2017-09-04T12:31:14.955Z,25.97
2017-09-04T12:33:43.310Z,25.88
2017-09-04T12:36:11.643Z,25.39
2017-09-04T12:38:39.963Z,25.19
2017-09-04T12:41:08.299Z,25.52
2017-09-04T12:43:36.618Z,25.58
2017-09-04T12:46:04.958Z,25.87
2017-09-04T12:48:33.277Z,26.52
2017-09-04T12:51:01.626Z,26.18
2017-09-04T12:53:29.947Z,26.15
2017-09-04T12:55:58.283Z,26.04
2017-09-04T12:58:26.603Z,25.61
2017-09-04T13:00:54.923Z,26.36
2017-09-04T13:03:23.266Z,26.33
2017-09-04T13:05:51.593Z,26.91
2017-09-04T13:08:19.925Z,27.66
2017-09-04T13:24:26.770Z,28.35
2017-09-04T13:40:27.622Z,28.54
2017-09-04T13:43:01.520Z,28.89
2017-09-04T13:59:08.935Z,30.97
2017-09-04T14:01:42.718Z,30.40
2017-09-04T14:17:54.633Z,32.38
2017-09-04T14:20:22.959Z,32.71
2017-09-04T14:22:52.033Z,32.72
2017-09-04T14:25:20.749Z,32.49
2017-09-04T14:27:49.065Z,32.55
2017-09-04T14:30:17.511Z,32.79
2017-09-04T14:32:45.826Z,32.84
2017-09-04T14:35:14.156Z,33.24
2017-09-04T14:37:42.503Z,33.81
2017-09-04T14:40:10.814Z,33.34
2017-09-04T14:42:44.739Z,32.03
2017-09-04T14:45:27.942Z,31.27
2017-09-04T14:47:57.631Z,30.36
2017-09-04T14:50:25.946Z,29.70
2017-09-04T14:52:54.264Z,28.64
2017-09-04T14:55:22.598Z,26.73
2017-09-04T14:57:50.927Z,26.22
2017-09-04T15:00:19.271Z,25.41
2017-09-04T15:02:47.590Z,24.91
2017-09-04T15:05:15.930Z,24.51
2017-09-04T15:07:44.260Z,24.60
2017-09-04T15:10:12.578Z,24.58
2017-09-04T15:12:40.936Z,24.55
2017-09-04T15:15:09.253Z,24.66
2017-09-04T15:17:37.568Z,25.50
2017-09-04T15:20:05.912Z,26.24
2017-09-04T15:22:34.232Z,27.17
2017-09-04T15:25:02.550Z,28.36
2017-09-04T15:27:30.904Z,29.30
2017-09-04T15:29:59.219Z,29.34
2017-09-04T15:32:27.530Z,29.74
2017-09-04T15:34:55.873Z,29.81
2017-09-04T15:37:24.195Z,29.79
2017-09-04T15:39:52.551Z,30.17
2017-09-04T15:42:20.985Z,30.43
2017-09-04T15:44:49.318Z,29.49
2017-09-04T15:47:17.662Z,29.70
2017-09-04T15:49:45.981Z,30.28
2017-09-04T15:52:14.306Z,30.41
2017-09-04T15:54:42.663Z,30.60
2017-09-04T15:57:10.976Z,30.68
2017-09-04T15:59:39.298Z,30.75
2017-09-04T16:02:07.637Z,31.25
2017-09-04T16:04:36.800Z,31.34
2017-09-04T16:07:05.150Z,30.61
2017-09-04T16:09:33.471Z,30.95
2017-09-04T16:12:18.383Z,31.21
2017-09-04T16:28:15.667Z,31.76
2017-09-04T16:31:01.819Z,30.78
2017-09-04T16:33:32.450Z,30.24
2017-09-04T16:36:01.201Z,30.26
2017-09-04T16:52:07.398Z,27.01
2017-09-04T17:07:59.457Z,24.54
2017-09-04T17:10:27.789Z,24.58
2017-09-04T17:12:56.132Z,24.45
2017-09-04T17:15:27.886Z,24.25
2017-09-04T17:17:59.567Z,23.92
2017-09-04T17:20:28.152Z,23.45
2017-09-04T17:36:23.988Z,21.87
2017-09-04T17:38:52.330Z,21.61
2017-09-04T17:41:20.654Z,21.58
2017-09-04T17:43:48.971Z,21.47
2017-09-04T17:46:17.315Z,20.90
2017-09-04T17:48:45.634Z,20.94
2017-09-04T17:51:13.956Z,20.94
2017-09-04T17:53:42.306Z,20.94
2017-09-04T17:56:10.619Z,20.68
2017-09-04T17:58:38.942Z,20.61
2017-09-04T18:01:07.298Z,20.49
2017-09-04T18:03:35.608Z,20.31
2017-09-04T18:06:03.952Z,20.10
2017-09-04T18:08:32.270Z,19.98
2017-09-04T18:11:00.607Z,19.72
2017-09-04T18:13:28.946Z,19.29
2017-09-04T18:15:57.266Z,18.52
2017-09-04T18:18:25.623Z,18.45
2017-09-04T18:20:53.938Z,18.40
2017-09-04T18:23:22.295Z,18.30
2017-09-04T18:25:50.618Z,18.17
2017-09-04T18:28:18.972Z,18.16
2017-09-04T18:30:47.310Z,18.06
2017-09-04T18:33:15.718Z,18.03
2017-09-04T18:35:44.008Z,17.95
2017-09-04T18:38:12.348Z,17.15
2017-09-04T18:40:40.670Z,17.27
2017-09-04T18:43:09.029Z,17.35
2017-09-04T18:45:37.347Z,17.51
2017-09-04T18:48:05.666Z,17.51
2017-09-04T18:50:34.046Z,17.45
2017-09-04T18:53:02.370Z,17.40
2017-09-04T18:55:30.704Z,17.44
2017-09-04T18:57:59.067Z,17.39
2017-09-04T19:00:27.387Z,17.37
2017-09-04T19:02:55.731Z,17.33
2017-09-04T19:05:24.093Z,17.23
2017-09-04T19:07:52.449Z,17.16
2017-09-04T19:10:20.766Z,17.08
2017-09-04T19:12:49.136Z,16.89
2017-09-04T19:15:17.504Z,16.76
2017-09-04T19:17:45.822Z,16.66
2017-09-04T19:20:14.146Z,16.66
2017-09-04T19:22:42.482Z,16.49
2017-09-04T19:25:10.806Z,16.50
2017-09-04T19:27:39.154Z,16.50
2017-09-04T19:30:07.478Z,16.40
2017-09-04T19:32:35.794Z,16.41
2017-09-04T19:35:04.150Z,16.25
2017-09-04T19:37:32.473Z,16.12
2017-09-04T19:40:00.797Z,16.15
2017-09-04T19:42:29.138Z,16.21
2017-09-04T19:44:57.450Z,16.13
2017-09-04T19:47:25.770Z,16.15
2017-09-04T19:49:54.123Z,16.06
2017-09-04T19:52:22.449Z,16.05
2017-09-04T19:54:50.769Z,16.00
2017-09-04T19:57:19.117Z,15.89
2017-09-04T19:59:47.434Z,15.62
2017-09-04T20:02:15.774Z,15.65
2017-09-04T20:04:44.110Z,15.56
2017-09-04T20:07:12.435Z,15.44
2017-09-04T20:09:40.796Z,15.38
2017-09-04T20:12:09.111Z,15.37
2017-09-04T20:14:37.426Z,15.29
2017-09-04T20:17:05.774Z,15.32
2017-09-04T20:19:34.095Z,15.29
2017-09-04T20:22:02.449Z,15.33
2017-09-04T20:24:30.764Z,15.32
2017-09-04T20:26:59.078Z,15.33
2017-09-04T20:29:27.436Z,15.29
2017-09-04T20:31:55.759Z,15.15
2017-09-04T20:34:24.074Z,15.09
2017-09-04T20:36:52.418Z,15.23
2017-09-04T20:39:20.765Z,15.32
2017-09-04T20:41:49.083Z,15.26
2017-09-04T20:44:17.412Z,15.18
2017-09-04T20:46:45.763Z,15.12
2017-09-04T20:49:14.082Z,15.07
2017-09-04T20:51:42.442Z,14.95
2017-09-04T20:54:10.759Z,14.68
2017-09-04T20:56:39.095Z,14.50
2017-09-04T20:59:07.417Z,14.50
2017-09-04T21:01:35.762Z,14.28
2017-09-04T21:04:04.088Z,14.41
2017-09-04T21:06:32.446Z,14.49
2017-09-04T21:09:00.766Z,14.58
2017-09-04T21:11:29.136Z,14.66
2017-09-04T21:13:57.459Z,14.66
2017-09-04T21:16:25.779Z,14.64
2017-09-04T21:18:54.127Z,14.54
2017-09-04T21:21:22.438Z,14.27
2017-09-04T21:23:50.767Z,14.09
2017-09-04T21:26:19.119Z,14.07
2017-09-04T21:28:47.442Z,14.11
2017-09-04T21:31:15.804Z,14.18
2017-09-04T21:33:44.122Z,14.24
2017-09-04T21:36:13.208Z,14.16
2017-09-04T21:38:41.549Z,14.09
2017-09-04T21:41:09.895Z,14.10
2017-09-04T21:43:38.212Z,14.10
2017-09-04T21:46:06.570Z,14.15
2017-09-04T21:48:34.891Z,14.09
2017-09-04T21:51:03.201Z,13.96
2017-09-04T21:53:31.549Z,13.97
2017-09-04T21:55:59.862Z,13.73
2017-09-04T21:58:28.188Z,13.60
2017-09-04T22:00:56.550Z,13.69
2017-09-04T22:03:24.862Z,13.77
2017-09-04T22:05:53.182Z,13.63
2017-09-04T22:08:21.522Z,13.61
2017-09-04T22:10:49.850Z,13.54
2017-09-04T22:13:18.166Z,13.50
2017-09-04T22:15:46.534Z,13.22
2017-09-04T22:18:14.878Z,13.13
2017-09-04T22:20:43.194Z,12.96
2017-09-04T22:23:11.539Z,12.80
2017-09-04T22:25:39.854Z,12.87
2017-09-04T22:28:08.195Z,12.96
2017-09-04T22:30:36.514Z,13.08
2017-09-04T22:33:04.840Z,13.16
2017-09-04T22:35:33.197Z,13.19
2017-09-04T22:38:01.520Z,13.19
2017-09-04T22:40:29.839Z,13.02
2017-09-04T22:42:58.183Z,13.06
2017-09-04T22:45:26.514Z,13.06
2017-09-04T22:47:54.838Z,13.10
2017-09-04T22:50:23.186Z,13.02
2017-09-04T22:52:51.505Z,12.96
2017-09-04T22:55:19.830Z,12.75
2017-09-04T22:57:48.174Z,12.50
2017-09-04T23:00:16.495Z,12.33
2017-09-04T23:02:44.827Z,12.31
2017-09-04T23:05:13.164Z,12.36
2017-09-04T23:07:41.479Z,12.40
2017-09-04T23:10:09.850Z,12.64
2017-09-04T23:12:38.170Z,12.63
2017-09-04T23:15:06.494Z,12.70
2017-09-04T23:17:34.872Z,12.77
2017-09-04T23:20:03.199Z,12.84
2017-09-04T23:22:31.522Z,12.73
2017-09-04T23:24:59.870Z,12.55
2017-09-04T23:27:28.187Z,12.44
2017-09-04T23:29:56.506Z,12.35
2017-09-04T23:32:24.851Z,12.47
2017-09-04T23:34:53.170Z,12.45
2017-09-04T23:37:21.496Z,12.47
2017-09-04T23:39:49.846Z,12.41
2017-09-04T23:42:18.195Z,12.41
2017-09-04T23:44:46.510Z,12.51
2017-09-04T23:47:14.833Z,12.36
2017-09-04T23:49:43.178Z,12.25
2017-09-04T23:52:11.502Z,12.31
2017-09-04T23:54:39.826Z,12.28
2017-09-04T23:57:08.178Z,12.44
2017-09-04T23:59:36.494Z,12.39
